Jard de Vega Baja, Puerto Rico
Current Conditions -  °F | °C
As of 10:56 PM on Tuesday 25 Nov 2014 (Local Time) from TJSJ Reporting Station
Scattered Clouds Scattered Clouds  
Wind Chill: 80°   Ceiling: Unl
Heat Index: 84°   Visibility: 10mi
Dew Point: 72°   Wind: 7mph
Humidity: 76%   Direction: 100°E
Pressure: 30.02"   Gusts: NA
Location:  18.4061°N, 66.3012°W
Report Text: TJSJ 260256Z 10006KT 10SM FEW030 SCT038 27/22 A3002 RMK AO2 SLP166 T02670222 58002
Loading
Personal Weather Stations






























Interactive Weather Map New forecast layout! Learn more

10-Day Weather Forecast

Advertisements
Track Severe Weather on mobile